Check out our new PWSWeather beta!
PWSweather.com
Personal Weather Stations
Station Observations
METEOC500
Santo Antonio, FunchalPT 2020

Santo AntonioFunchalPT 2020

Lat: 32.678227, Lon: -16.945054

Elevation: 1669.94751

Station Type: WH Series

High Low Average
Temperature 67.8°F19.9°C 56.7°F13.7°C 60.4°F15.8°C
Dew Point 60.6°F15.9°C 49.1°F9.5°C 54.2°F12.3°C
Winds 10.3 mph 16.6 kmh Calm Calm 5.0 mph WSW8.0 kmh WSW
Wind Gusts 15.0 mph24.1 kmh -- 10.0 mph16.1 kmh
Humidity 92% 64% 80%
Pressure 30.19 in1022.4 mb 30.09 in1019.0 mb -
Precipitation 0.00 in0.0 mm - -
Hour Temp Dew Point Humidity Winds Wind Gusts Pressure Precip Precip Rate Daily Precip Total
12:02 AM 57.9°F14.4°C 52.5°F11.4°C 82% 6.0 mph NNW9.7 kmh NNW 15.0 mph24.1 kmh 30.19 in1022.4 mb 0.00 in0.0 mm 0.00 in0.0 mm 0.00 in0.0 mm
12:17 AM 57.9°F14.4°C 52.5°F11.4°C 82% 7.2 mph NNW11.6 kmh NNW 12.5 mph20.1 kmh 30.18 in1022.0 mb 0.00 in0.0 mm 0.00 in0.0 mm 0.00 in0.0 mm
12:32 AM 57.9°F14.4°C 52.2°F11.2°C 81% 8.7 mph NNW14.0 kmh NNW 12.5 mph20.1 kmh 30.18 in1022.0 mb 0.00 in0.0 mm 0.00 in0.0 mm 0.00 in0.0 mm
12:47 AM 58.1°F14.5°C 52.7°F11.5°C 82% 8.7 mph NW14.0 kmh NW 10.1 mph16.3 kmh 30.17 in1021.7 mb 0.00 in0.0 mm 0.00 in0.0 mm 0.00 in0.0 mm
01:02 AM 57.9°F14.4°C 52.7°F11.5°C 83% 7.8 mph NNW12.6 kmh NNW 12.5 mph20.1 kmh 30.17 in1021.7 mb 0.00 in0.0 mm 0.00 in0.0 mm 0.00 in0.0 mm
01:17 AM 57.6°F14.2°C 52.2°F11.2°C 82% 7.8 mph N12.6 kmh N 10.1 mph16.3 kmh 30.17 in1021.7 mb 0.00 in0.0 mm 0.00 in0.0 mm 0.00 in0.0 mm
01:32 AM 57.0°F13.9°C 52.2°F11.2°C 84% 5.6 mph NNW9.0 kmh NNW 10.1 mph16.3 kmh 30.16 in1021.3 mb 0.00 in0.0 mm 0.00 in0.0 mm 0.00 in0.0 mm
01:47 AM 56.8°F13.8°C 52.0°F11.1°C 84% 5.4 mph NNW8.7 kmh NNW 10.1 mph16.3 kmh 30.16 in1021.3 mb 0.00 in0.0 mm 0.00 in0.0 mm 0.00 in0.0 mm
02:02 AM 57.0°F13.9°C 52.0°F11.1°C 83% 5.6 mph NNW9.0 kmh NNW 10.1 mph16.3 kmh 30.16 in1021.3 mb 0.00 in0.0 mm 0.00 in0.0 mm 0.00 in0.0 mm
02:17 AM 57.4°F14.1°C 52.3°F11.3°C 83% 5.4 mph NNW8.7 kmh NNW 10.1 mph16.3 kmh 30.16 in1021.3 mb 0.00 in0.0 mm 0.00 in0.0 mm 0.00 in0.0 mm
02:32 AM 57.4°F14.1°C 52.3°F11.3°C 83% 7.8 mph NNW12.6 kmh NNW 10.1 mph16.3 kmh 30.15 in1021.0 mb 0.00 in0.0 mm 0.00 in0.0 mm 0.00 in0.0 mm
02:47 AM 57.2°F14.0°C 51.8°F11.0°C 82% 6.5 mph NW10.5 kmh NW 10.1 mph16.3 kmh 30.15 in1021.0 mb 0.00 in0.0 mm 0.00 in0.0 mm 0.00 in0.0 mm
03:02 AM 57.0°F13.9°C 51.6°F10.9°C 82% 4.7 mph NNW7.6 kmh NNW 12.5 mph20.1 kmh 30.14 in1020.7 mb 0.00 in0.0 mm 0.00 in0.0 mm 0.00 in0.0 mm
03:17 AM 56.8°F13.8°C 51.4°F10.8°C 82% 7.2 mph NNW11.6 kmh NNW 12.5 mph20.1 kmh 30.14 in1020.7 mb 0.00 in0.0 mm 0.00 in0.0 mm 0.00 in0.0 mm
03:32 AM 56.8°F13.8°C 51.1°F10.6°C 81% 8.1 mph NNW13.0 kmh NNW 12.5 mph20.1 kmh 30.14 in1020.7 mb 0.00 in0.0 mm 0.00 in0.0 mm 0.00 in0.0 mm
03:48 AM 56.8°F13.8°C 51.1°F10.6°C 81% 6.0 mph N9.7 kmh N 12.5 mph20.1 kmh 30.14 in1020.7 mb 0.00 in0.0 mm 0.00 in0.0 mm 0.00 in0.0 mm
04:03 AM 56.8°F13.8°C 50.7°F10.4°C 80% 8.5 mph NNW13.7 kmh NNW 10.1 mph16.3 kmh 30.14 in1020.7 mb 0.00 in0.0 mm 0.00 in0.0 mm 0.00 in0.0 mm
04:18 AM 56.8°F13.8°C 50.7°F10.4°C 80% 6.9 mph NNW11.1 kmh NNW 12.5 mph20.1 kmh 30.14 in1020.7 mb 0.00 in0.0 mm 0.00 in0.0 mm 0.00 in0.0 mm
04:33 AM 56.8°F13.8°C 50.7°F10.4°C 80% 6.3 mph NNW10.1 kmh NNW 12.5 mph20.1 kmh 30.14 in1020.7 mb 0.00 in0.0 mm 0.00 in0.0 mm 0.00 in0.0 mm
04:48 AM 56.8°F13.8°C 50.7°F10.4°C 80% 6.0 mph NNW9.7 kmh NNW 10.1 mph16.3 kmh 30.14 in1020.7 mb 0.00 in0.0 mm 0.00 in0.0 mm 0.00 in0.0 mm
05:03 AM 56.7°F13.7°C 50.5°F10.3°C 80% 6.9 mph NW11.1 kmh NW 12.5 mph20.1 kmh 30.14 in1020.7 mb 0.00 in0.0 mm 0.00 in0.0 mm 0.00 in0.0 mm
05:18 AM 56.7°F13.7°C 50.5°F10.3°C 80% 7.8 mph NNW12.6 kmh NNW 10.1 mph16.3 kmh 30.14 in1020.7 mb 0.00 in0.0 mm 0.00 in0.0 mm 0.00 in0.0 mm
05:33 AM 56.8°F13.8°C 50.4°F10.2°C 79% 6.5 mph NW10.5 kmh NW 10.1 mph16.3 kmh 30.14 in1020.7 mb 0.00 in0.0 mm 0.00 in0.0 mm 0.00 in0.0 mm
05:48 AM 57.0°F13.9°C 50.5°F10.3°C 79% 8.7 mph N14.0 kmh N 12.5 mph20.1 kmh 30.14 in1020.7 mb 0.00 in0.0 mm 0.00 in0.0 mm 0.00 in0.0 mm
06:03 AM 56.8°F13.8°C 50.7°F10.4°C 80% 9.4 mph N15.1 kmh N 12.5 mph20.1 kmh 30.14 in1020.7 mb 0.00 in0.0 mm 0.00 in0.0 mm 0.00 in0.0 mm
06:18 AM 56.8°F13.8°C 50.4°F10.2°C 79% 8.7 mph N14.0 kmh N 12.5 mph20.1 kmh 30.14 in1020.7 mb 0.00 in0.0 mm 0.00 in0.0 mm 0.00 in0.0 mm
06:33 AM 57.0°F13.9°C 50.2°F10.1°C 78% 9.2 mph NNW14.8 kmh NNW 10.1 mph16.3 kmh 30.14 in1020.7 mb 0.00 in0.0 mm 0.00 in0.0 mm 0.00 in0.0 mm
06:48 AM 57.0°F13.9°C 50.2°F10.1°C 78% 6.9 mph NNW11.1 kmh NNW 15.0 mph24.1 kmh 30.14 in1020.7 mb 0.00 in0.0 mm 0.00 in0.0 mm 0.00 in0.0 mm
07:03 AM 57.0°F13.9°C 50.2°F10.1°C 78% 8.1 mph NNW13.0 kmh NNW 12.5 mph20.1 kmh 30.15 in1021.0 mb 0.00 in0.0 mm 0.00 in0.0 mm 0.00 in0.0 mm
07:18 AM 57.0°F13.9°C 49.8°F9.9°C 77% 7.8 mph NNW12.6 kmh NNW 15.0 mph24.1 kmh 30.15 in1021.0 mb 0.00 in0.0 mm 0.00 in0.0 mm 0.00 in0.0 mm
07:33 AM 57.0°F13.9°C 49.5°F9.7°C 76% 9.2 mph NNW14.8 kmh NNW 12.5 mph20.1 kmh 30.16 in1021.3 mb 0.00 in0.0 mm 0.00 in0.0 mm 0.00 in0.0 mm
07:48 AM 57.0°F13.9°C 49.8°F9.9°C 77% 8.1 mph NNW13.0 kmh NNW 12.5 mph20.1 kmh 30.15 in1021.0 mb 0.00 in0.0 mm 0.00 in0.0 mm 0.00 in0.0 mm
08:03 AM 57.0°F13.9°C 49.8°F9.9°C 77% 9.4 mph NNW15.1 kmh NNW 12.5 mph20.1 kmh 30.16 in1021.3 mb 0.00 in0.0 mm 0.00 in0.0 mm 0.00 in0.0 mm
08:19 AM 57.4°F14.1°C 49.1°F9.5°C 74% 6.0 mph NNW9.7 kmh NNW 12.5 mph20.1 kmh 30.16 in1021.3 mb 0.00 in0.0 mm 0.00 in0.0 mm 0.00 in0.0 mm
08:34 AM 58.3°F14.6°C 50.0°F10.0°C 74% 6.3 mph N10.1 kmh N 10.1 mph16.3 kmh 30.16 in1021.3 mb 0.00 in0.0 mm 0.00 in0.0 mm 0.00 in0.0 mm
08:49 AM 58.5°F14.7°C 51.3°F10.7°C 77% 6.5 mph N10.5 kmh N 10.1 mph16.3 kmh 30.17 in1021.7 mb 0.00 in0.0 mm 0.00 in0.0 mm 0.00 in0.0 mm
09:04 AM 57.9°F14.4°C 51.8°F11.0°C 80% 3.8 mph N6.1 kmh N 7.6 mph12.2 kmh 30.17 in1021.7 mb 0.00 in0.0 mm 0.00 in0.0 mm 0.00 in0.0 mm
09:19 AM 57.6°F14.2°C 52.2°F11.2°C 82% 3.1 mph N5.0 kmh N 7.6 mph12.2 kmh 30.17 in1021.7 mb 0.00 in0.0 mm 0.00 in0.0 mm 0.00 in0.0 mm
09:34 AM 57.4°F14.1°C 51.6°F10.9°C 81% 4.5 mph NNW7.2 kmh NNW 7.6 mph12.2 kmh 30.19 in1022.4 mb 0.00 in0.0 mm 0.00 in0.0 mm 0.00 in0.0 mm
09:49 AM 58.5°F14.7°C 50.9°F10.5°C 76% 2.5 mph NNW4.0 kmh NNW 7.6 mph12.2 kmh 30.18 in1022.0 mb 0.00 in0.0 mm 0.00 in0.0 mm 0.00 in0.0 mm
10:04 AM 60.6°F15.9°C 49.6°F9.8°C 67% 2.2 mph SSE3.5 kmh SSE 2.5 mph4.0 kmh 30.19 in1022.4 mb 0.00 in0.0 mm 0.00 in0.0 mm 0.00 in0.0 mm
10:19 AM 64.2°F17.9°C 51.8°F11.0°C 64% 2.9 mph S4.7 kmh S 4.9 mph7.9 kmh 30.19 in1022.4 mb 0.00 in0.0 mm 0.00 in0.0 mm 0.00 in0.0 mm
10:34 AM 65.8°F18.8°C 54.1°F12.3°C 66% 4.7 mph SE7.6 kmh SE 10.1 mph16.3 kmh 30.19 in1022.4 mb 0.00 in0.0 mm 0.00 in0.0 mm 0.00 in0.0 mm
10:49 AM 65.8°F18.8°C 53.2°F11.8°C 64% 6.0 mph SSE9.7 kmh SSE 7.6 mph12.2 kmh 30.19 in1022.4 mb 0.00 in0.0 mm 0.00 in0.0 mm 0.00 in0.0 mm
11:04 AM 65.8°F18.8°C 54.5°F12.5°C 67% 3.8 mph E6.1 kmh E 10.1 mph16.3 kmh 30.19 in1022.4 mb 0.00 in0.0 mm 0.00 in0.0 mm 0.00 in0.0 mm
11:19 AM 65.8°F18.8°C 56.1°F13.4°C 71% 4.0 mph S6.4 kmh S 10.1 mph16.3 kmh 30.19 in1022.4 mb 0.00 in0.0 mm 0.00 in0.0 mm 0.00 in0.0 mm
11:34 AM 66.2°F19.0°C 58.1°F14.5°C 75% 2.2 mph SSW3.5 kmh SSW 10.1 mph16.3 kmh 30.19 in1022.4 mb 0.00 in0.0 mm 0.00 in0.0 mm 0.00 in0.0 mm
11:49 AM 66.4°F19.1°C 58.6°F14.8°C 76% 6.9 mph S11.1 kmh S 10.1 mph16.3 kmh 30.18 in1022.0 mb 0.00 in0.0 mm 0.00 in0.0 mm 0.00 in0.0 mm
12:04 PM 66.6°F19.2°C 58.1°F14.5°C 74% 9.4 mph E15.1 kmh E 12.5 mph20.1 kmh 30.18 in1022.0 mb 0.00 in0.0 mm 0.00 in0.0 mm 0.00 in0.0 mm
12:19 PM 66.6°F19.2°C 58.5°F14.7°C 75% 4.5 mph S7.2 kmh S 12.5 mph20.1 kmh 30.17 in1021.7 mb 0.00 in0.0 mm 0.00 in0.0 mm 0.00 in0.0 mm
12:34 PM 66.4°F19.1°C 57.9°F14.4°C 74% 3.4 mph S5.5 kmh S 12.5 mph20.1 kmh 30.16 in1021.3 mb 0.00 in0.0 mm 0.00 in0.0 mm 0.00 in0.0 mm
12:50 PM 65.8°F18.8°C 56.5°F13.6°C 72% 10.3 mph SE16.6 kmh SE 12.5 mph20.1 kmh 30.16 in1021.3 mb 0.00 in0.0 mm 0.00 in0.0 mm 0.00 in0.0 mm
01:05 PM 65.3°F18.5°C 56.1°F13.4°C 72% 6.3 mph E10.1 kmh E 12.5 mph20.1 kmh 30.15 in1021.0 mb 0.00 in0.0 mm 0.00 in0.0 mm 0.00 in0.0 mm
01:20 PM 65.8°F18.8°C 55.8°F13.2°C 70% 7.2 mph SE11.6 kmh SE 12.5 mph20.1 kmh 30.15 in1021.0 mb 0.00 in0.0 mm 0.00 in0.0 mm 0.00 in0.0 mm
01:35 PM 66.0°F18.9°C 57.2°F14.0°C 73% 3.8 mph SE6.1 kmh SE 15.0 mph24.1 kmh 30.14 in1020.7 mb 0.00 in0.0 mm 0.00 in0.0 mm 0.00 in0.0 mm
01:50 PM 66.2°F19.0°C 56.5°F13.6°C 71% 8.1 mph E13.0 kmh E 12.5 mph20.1 kmh 30.14 in1020.7 mb 0.00 in0.0 mm 0.00 in0.0 mm 0.00 in0.0 mm
02:05 PM 66.6°F19.2°C 56.8°F13.8°C 71% 5.6 mph E9.0 kmh E 15.0 mph24.1 kmh 30.13 in1020.3 mb 0.00 in0.0 mm 0.00 in0.0 mm 0.00 in0.0 mm
02:20 PM 66.9°F19.4°C 57.2°F14.0°C 71% 2.5 mph SE4.0 kmh SE 15.0 mph24.1 kmh 30.12 in1020.0 mb 0.00 in0.0 mm 0.00 in0.0 mm 0.00 in0.0 mm
02:35 PM 67.5°F19.7°C 57.0°F13.9°C 69% 1.6 mph S2.6 kmh S 12.5 mph20.1 kmh 30.11 in1019.6 mb 0.00 in0.0 mm 0.00 in0.0 mm 0.00 in0.0 mm
02:50 PM 67.8°F19.9°C 57.7°F14.3°C 70% 2.9 mph S4.7 kmh S 12.5 mph20.1 kmh 30.11 in1019.6 mb 0.00 in0.0 mm 0.00 in0.0 mm 0.00 in0.0 mm
03:05 PM 67.6°F19.8°C 57.6°F14.2°C 70% 7.8 mph S12.6 kmh S 12.5 mph20.1 kmh 30.11 in1019.6 mb 0.00 in0.0 mm 0.00 in0.0 mm 0.00 in0.0 mm
03:20 PM 67.6°F19.8°C 59.4°F15.2°C 75% 4.9 mph S7.9 kmh S 12.5 mph20.1 kmh 30.10 in1019.3 mb 0.00 in0.0 mm 0.00 in0.0 mm 0.00 in0.0 mm
03:35 PM 67.1°F19.5°C 59.4°F15.2°C 76% 8.7 mph E14.0 kmh E 12.5 mph20.1 kmh 30.09 in1019.0 mb 0.00 in0.0 mm 0.00 in0.0 mm 0.00 in0.0 mm
03:50 PM 66.2°F19.0°C 59.9°F15.5°C 80% 7.8 mph SSE12.6 kmh SSE 12.5 mph20.1 kmh 30.09 in1019.0 mb 0.00 in0.0 mm 0.00 in0.0 mm 0.00 in0.0 mm
04:05 PM 65.3°F18.5°C 60.6°F15.9°C 85% 5.4 mph ESE8.7 kmh ESE 15.0 mph24.1 kmh 30.09 in1019.0 mb 0.00 in0.0 mm 0.00 in0.0 mm 0.00 in0.0 mm
04:20 PM 64.4°F18.0°C 60.1°F15.6°C 86% 3.1 mph SSW5.0 kmh SSW 15.0 mph24.1 kmh 30.10 in1019.3 mb 0.00 in0.0 mm 0.00 in0.0 mm 0.00 in0.0 mm
04:35 PM 63.7°F17.6°C 59.7°F15.4°C 87% 2.5 mph SSE4.0 kmh SSE 10.1 mph16.3 kmh 30.10 in1019.3 mb 0.00 in0.0 mm 0.00 in0.0 mm 0.00 in0.0 mm
04:50 PM 63.0°F17.2°C 59.4°F15.2°C 88% 5.6 mph E9.0 kmh E 10.1 mph16.3 kmh 30.10 in1019.3 mb 0.00 in0.0 mm 0.00 in0.0 mm 0.00 in0.0 mm
05:05 PM 62.4°F16.9°C 58.8°F14.9°C 88% 1.6 mph S2.6 kmh S 10.1 mph16.3 kmh 30.10 in1019.3 mb 0.00 in0.0 mm 0.00 in0.0 mm 0.00 in0.0 mm
05:20 PM 62.1°F16.7°C 58.8°F14.9°C 89% 2.9 mph ESE4.7 kmh ESE 10.1 mph16.3 kmh 30.10 in1019.3 mb 0.00 in0.0 mm 0.00 in0.0 mm 0.00 in0.0 mm
05:36 PM 61.7°F16.5°C 58.5°F14.7°C 89% 4.5 mph SSE7.2 kmh SSE 7.6 mph12.2 kmh 30.10 in1019.3 mb 0.00 in0.0 mm 0.00 in0.0 mm 0.00 in0.0 mm
05:51 PM 61.5°F16.4°C 58.3°F14.6°C 89% 3.1 mph S5.0 kmh S 7.6 mph12.2 kmh 30.10 in1019.3 mb 0.00 in0.0 mm 0.00 in0.0 mm 0.00 in0.0 mm
06:06 PM 61.2°F16.2°C 57.9°F14.4°C 89% 2.9 mph ESE4.7 kmh ESE 7.6 mph12.2 kmh 30.10 in1019.3 mb 0.00 in0.0 mm 0.00 in0.0 mm 0.00 in0.0 mm
06:21 PM 60.8°F16.0°C 57.9°F14.4°C 90% Calm Calm 4.9 mph7.9 kmh 30.11 in1019.6 mb 0.00 in0.0 mm 0.00 in0.0 mm 0.00 in0.0 mm
06:36 PM 60.4°F15.8°C 57.2°F14.0°C 89% Calm Calm 4.9 mph7.9 kmh 30.11 in1019.6 mb 0.00 in0.0 mm 0.00 in0.0 mm 0.00 in0.0 mm
06:51 PM 60.1°F15.6°C 57.2°F14.0°C 90% Calm Calm -- 30.11 in1019.6 mb 0.00 in0.0 mm 0.00 in0.0 mm 0.00 in0.0 mm
07:06 PM 59.9°F15.5°C 57.0°F13.9°C 90% Calm Calm -- 30.12 in1020.0 mb 0.00 in0.0 mm 0.00 in0.0 mm 0.00 in0.0 mm
07:21 PM 59.7°F15.4°C 56.8°F13.8°C 90% Calm Calm -- 30.12 in1020.0 mb 0.00 in0.0 mm 0.00 in0.0 mm 0.00 in0.0 mm
07:36 PM 59.7°F15.4°C 57.0°F13.9°C 91% Calm Calm -- 30.12 in1020.0 mb 0.00 in0.0 mm 0.00 in0.0 mm 0.00 in0.0 mm
07:51 PM 60.1°F15.6°C 57.7°F14.3°C 92% Calm Calm -- 30.13 in1020.3 mb 0.00 in0.0 mm 0.00 in0.0 mm 0.00 in0.0 mm
08:06 PM 60.1°F15.6°C 57.7°F14.3°C 92% Calm Calm 2.5 mph4.0 kmh 30.14 in1020.7 mb 0.00 in0.0 mm 0.00 in0.0 mm 0.00 in0.0 mm
08:21 PM 60.1°F15.6°C 57.7°F14.3°C 92% Calm Calm 2.5 mph4.0 kmh 30.14 in1020.7 mb 0.00 in0.0 mm 0.00 in0.0 mm 0.00 in0.0 mm
08:36 PM 59.9°F15.5°C 57.6°F14.2°C 92% Calm Calm -- 30.14 in1020.7 mb 0.00 in0.0 mm 0.00 in0.0 mm 0.00 in0.0 mm
08:51 PM 59.5°F15.3°C 57.2°F14.0°C 92% 1.3 mph NNW2.1 kmh NNW 4.9 mph7.9 kmh 30.15 in1021.0 mb 0.00 in0.0 mm 0.00 in0.0 mm 0.00 in0.0 mm
09:06 PM 58.6°F14.8°C 55.9°F13.3°C 91% 4.9 mph NW7.9 kmh NW 7.6 mph12.2 kmh 30.15 in1021.0 mb 0.00 in0.0 mm 0.00 in0.0 mm 0.00 in0.0 mm
09:21 PM 58.3°F14.6°C 54.1°F12.3°C 86% 7.2 mph NW11.6 kmh NW 10.1 mph16.3 kmh 30.16 in1021.3 mb 0.00 in0.0 mm 0.00 in0.0 mm 0.00 in0.0 mm
09:36 PM 58.5°F14.7°C 53.6°F12.0°C 84% 3.1 mph 5.0 kmh 10.1 mph16.3 kmh 30.16 in1021.3 mb 0.00 in0.0 mm 0.00 in0.0 mm 0.00 in0.0 mm
09:51 PM 58.3°F14.6°C 53.4°F11.9°C 84% 4.0 mph NNW6.4 kmh NNW 7.6 mph12.2 kmh 30.16 in1021.3 mb 0.00 in0.0 mm 0.00 in0.0 mm 0.00 in0.0 mm
10:07 PM 57.6°F14.2°C 52.7°F11.5°C 84% 4.7 mph N7.6 kmh N 7.6 mph12.2 kmh 30.16 in1021.3 mb 0.00 in0.0 mm 0.00 in0.0 mm 0.00 in0.0 mm
10:22 PM 57.2°F14.0°C 51.8°F11.0°C 82% 4.9 mph NNW7.9 kmh NNW 7.6 mph12.2 kmh 30.16 in1021.3 mb 0.00 in0.0 mm 0.00 in0.0 mm 0.00 in0.0 mm
10:37 PM 57.6°F14.2°C 51.8°F11.0°C 81% 5.4 mph NNW8.7 kmh NNW 7.6 mph12.2 kmh 30.16 in1021.3 mb 0.00 in0.0 mm 0.00 in0.0 mm 0.00 in0.0 mm
10:52 PM 57.9°F14.4°C 52.5°F11.4°C 82% 4.5 mph NNW7.2 kmh NNW 7.6 mph12.2 kmh 30.16 in1021.3 mb 0.00 in0.0 mm 0.00 in0.0 mm 0.00 in0.0 mm
11:07 PM 58.1°F14.5°C 52.3°F11.3°C 81% 4.9 mph NNW7.9 kmh NNW 10.1 mph16.3 kmh 30.16 in1021.3 mb 0.00 in0.0 mm 0.00 in0.0 mm 0.00 in0.0 mm
11:22 PM 58.3°F14.6°C 51.8°F11.0°C 79% 4.5 mph NNW7.2 kmh NNW 7.6 mph12.2 kmh 30.16 in1021.3 mb 0.00 in0.0 mm 0.00 in0.0 mm 0.00 in0.0 mm
11:37 PM 58.8°F14.9°C 52.3°F11.3°C 79% 3.8 mph N6.1 kmh N 7.6 mph12.2 kmh 30.15 in1021.0 mb 0.00 in0.0 mm 0.00 in0.0 mm 0.00 in0.0 mm
11:52 PM 58.6°F14.8°C 52.5°F11.4°C 80% 4.9 mph NW7.9 kmh NW 7.6 mph12.2 kmh 30.15 in1021.0 mb 0.00 in0.0 mm 0.00 in0.0 mm 0.00 in0.0 mm